Time;durP1;ratioP1;P1;durP2;ratioP2;P2;SDS_P1;SDS_P2;PMS_P1;PMS_P2;Temp;Humidity;BMP_temperature;BMP_pressure;BME280_temperature;BME280_humidity;BME280_pressure;Samples;Min_cycle;Max_cycle;Signal;HPM_P1;HPM_P2
2023/03/15 00:02:01;;;;;;;0.90;0.10;;;;;;;;;;6311188;28;20044;-71
2023/03/15 00:05:04;;;;;;;2.45;0.50;;;;;;;;;;6312167;28;20056;-71
2023/03/15 00:08:06;;;;;;;0.20;0.13;;;;;;;;;;6311556;28;20052;-69
2023/03/15 00:11:08;;;;;;;0.77;0.20;;;;;;;;;;6312007;28;20509;-71
2023/03/15 00:14:10;;;;;;;0.43;0.20;;;;;;;;;;6313846;28;20082;-72
2023/03/15 00:17:12;;;;;;;0.25;0.10;;;;;;;;;;6311124;28;20097;-71
2023/03/15 00:20:17;;;;;;;0.88;0.20;;;;;;;;;;6312406;28;20316;-71
2023/03/15 00:23:19;;;;;;;1.25;0.10;;;;;;;;;;6312054;28;20181;-71
2023/03/15 00:26:21;;;;;;;0.45;0.13;;;;;;;;;;6311574;28;20055;-72
2023/03/15 00:29:23;;;;;;;1.33;0.20;;;;;;;;;;6312558;28;20051;-70
2023/03/15 00:32:25;;;;;;;0.93;0.47;;;;;;;;;;6309589;28;20048;-72
2023/03/15 00:35:28;;;;;;;0.40;0.13;;;;;;;;;;6310681;28;20039;-70
2023/03/15 00:38:30;;;;;;;0.13;0.10;;;;;;;;;;6313089;28;20051;-66
2023/03/15 00:41:32;;;;;;;0.52;0.10;;;;;;;;;;6313864;28;20323;-69
2023/03/15 00:44:34;;;;;;;1.10;0.25;;;;;;;;;;6313261;28;21262;-72
2023/03/15 00:47:36;;;;;;;3.67;0.30;;;;;;;;;;6334457;28;20055;-70
2023/03/15 00:50:39;;;;;;;0.30;0.20;;;;;;;;;;6338323;27;20058;-71
2023/03/15 00:53:42;;;;;;;0.30;0.10;;;;;;;;;;6334713;28;20253;-72
2023/03/15 00:56:44;;;;;;;0.77;0.35;;;;;;;;;;6333487;28;20238;-71
2023/03/15 00:59:46;;;;;;;0.30;0.10;;;;;;;;;;6336989;28;20048;-70
2023/03/15 01:02:48;;;;;;;3.38;0.30;;;;;;;;;;6332079;28;20109;-71
2023/03/15 01:05:51;;;;;;;2.20;0.47;;;;;;;;;;6337920;28;20059;-71
2023/03/15 01:08:54;;;;;;;1.93;0.20;;;;;;;;;;6336977;28;20055;-68
2023/03/15 01:11:56;;;;;;;0.32;0.20;;;;;;;;;;6334747;28;20094;-66
2023/03/15 01:15:01;;;;;;;0.17;0.00;;;;;;;;;;6333563;28;20058;-69
2023/03/15 01:18:03;;;;;;;3.17;0.17;;;;;;;;;;6335759;28;20055;-71
2023/03/15 01:21:08;;;;;;;1.00;0.28;;;;;;;;;;6330840;28;20052;-71
2023/03/15 01:24:12;;;;;;;0.32;0.20;;;;;;;;;;6331699;28;20062;-71
2023/03/15 01:27:15;;;;;;;0.35;0.10;;;;;;;;;;6338814;28;20113;-71
2023/03/15 01:30:17;;;;;;;0.20;0.10;;;;;;;;;;6339211;28;20259;-70
2023/03/15 01:33:18;;;;;;;0.45;0.17;;;;;;;;;;6333010;28;20059;-72
2023/03/15 01:36:22;;;;;;;0.70;0.10;;;;;;;;;;6335710;28;20096;-72
2023/03/15 01:39:24;;;;;;;0.43;0.17;;;;;;;;;;6340899;27;20288;-69
2023/03/15 01:42:26;;;;;;;0.73;0.20;;;;;;;;;;6336135;28;20055;-70
2023/03/15 01:45:57;;;;;;;0.65;0.10;;;;;;;;;;6335405;28;20060;-70
2023/03/15 01:49:03;;;;;;;0.70;0.20;;;;;;;;;;6333357;28;20053;-67
2023/03/15 01:52:11;;;;;;;0.40;0.20;;;;;;;;;;6336740;28;20055;-69
2023/03/15 01:55:15;;;;;;;1.67;0.30;;;;;;;;;;6338060;28;20075;-69
2023/03/15 01:58:17;;;;;;;0.95;0.30;;;;;;;;;;6338754;28;20216;-69
2023/03/15 02:01:20;;;;;;;0.43;0.20;;;;;;;;;;6332800;28;20356;-68
2023/03/15 02:04:24;;;;;;;2.28;0.40;;;;;;;;;;6339402;28;20066;-70
2023/03/15 02:07:34;;;;;;;0.55;0.30;;;;;;;;;;6338047;27;20048;-70
2023/03/15 02:10:38;;;;;;;1.00;0.32;;;;;;;;;;6336168;28;20489;-69
2023/03/15 02:13:40;;;;;;;;;;;;;;;;;;6335535;28;20161;-69
2023/03/15 02:16:43;;;;;;;0.32;0.20;;;;;;;;;;6338027;28;19981;-67
2023/03/15 02:19:49;;;;;;;0.40;0.20;;;;;;;;;;6335697;28;20117;-69
2023/03/15 02:22:55;;;;;;;0.68;0.30;;;;;;;;;;6335671;28;20334;-70
2023/03/15 02:26:02;;;;;;;0.15;0.10;;;;;;;;;;6336044;28;20115;-70
2023/03/15 02:29:05;;;;;;;0.68;0.28;;;;;;;;;;6333095;28;20051;-69
2023/03/15 02:32:07;;;;;;;0.40;0.20;;;;;;;;;;6335702;28;20107;-69
2023/03/15 02:35:10;;;;;;;1.20;0.25;;;;;;;;;;6332646;27;20040;-70
2023/03/15 02:38:11;;;;;;;0.35;0.20;;;;;;;;;;6339002;28;20392;-70
2023/03/15 02:41:16;;;;;;;0.50;0.20;;;;;;;;;;6337021;27;20047;-71
2023/03/15 02:44:24;;;;;;;0.90;0.10;;;;;;;;;;6343564;28;20114;-71
2023/03/15 02:47:29;;;;;;;1.33;0.17;;;;;;;;;;6341664;28;20048;-69
2023/03/15 02:50:30;;;;;;;0.40;0.10;;;;;;;;;;6340339;28;20153;-71
2023/03/15 02:53:33;;;;;;;0.20;0.20;;;;;;;;;;6335740;27;20115;-69
2023/03/15 02:56:34;;;;;;;1.45;0.30;;;;;;;;;;6342994;27;20047;-68
2023/03/15 02:59:38;;;;;;;0.63;0.30;;;;;;;;;;6328407;28;20052;-69
2023/03/15 03:02:40;;;;;;;0.00;0.00;;;;;;;;;;6310640;28;20364;-69
2023/03/15 03:05:42;;;;;;;0.20;0.13;;;;;;;;;;6321227;28;20327;-68
2023/03/15 03:08:45;;;;;;;0.95;0.30;;;;;;;;;;6318113;28;20056;-69
2023/03/15 03:11:47;;;;;;;0.20;0.20;;;;;;;;;;6311170;28;20056;-70
2023/03/15 03:14:50;;;;;;;0.77;0.20;;;;;;;;;;6329898;28;20116;-66
2023/03/15 03:17:53;;;;;;;0.85;0.28;;;;;;;;;;6315319;28;20048;-68
2023/03/15 03:20:55;;;;;;;0.38;0.20;;;;;;;;;;6311546;28;20059;-69
2023/03/15 03:23:57;;;;;;;0.20;0.20;;;;;;;;;;6313469;28;20133;-69
2023/03/15 03:26:59;;;;;;;0.40;0.28;;;;;;;;;;6310728;28;20106;-67
2023/03/15 03:30:02;;;;;;;0.82;0.30;;;;;;;;;;6301866;28;20101;-69
2023/03/15 03:33:04;;;;;;;0.68;0.40;;;;;;;;;;6313570;28;20056;-69
2023/03/15 03:36:07;;;;;;;0.25;0.10;;;;;;;;;;6316475;28;20052;-69
2023/03/15 03:39:09;;;;;;;0.30;0.10;;;;;;;;;;6313071;28;20151;-67
2023/03/15 03:42:11;;;;;;;0.45;0.20;;;;;;;;;;6315267;28;20052;-69
2023/03/15 03:45:14;;;;;;;1.40;0.15;;;;;;;;;;6312955;28;20040;-69
2023/03/15 03:48:16;;;;;;;0.10;0.10;;;;;;;;;;6315023;28;20233;-69
2023/03/15 03:51:18;;;;;;;0.28;0.10;;;;;;;;;;6311673;28;20044;-69
2023/03/15 03:54:20;;;;;;;1.48;0.22;;;;;;;;;;6312853;28;20229;-68
2023/03/15 03:57:22;;;;;;;0.68;0.28;;;;;;;;;;6314580;28;20102;-70
2023/03/15 04:00:25;;;;;;;1.48;0.28;;;;;;;;;;6314989;28;20045;-69
2023/03/15 04:03:27;;;;;;;0.47;0.20;;;;;;;;;;6312954;28;20115;-70
2023/03/15 04:06:28;;;;;;;0.75;0.20;;;;;;;;;;6311996;28;20722;-67
2023/03/15 04:09:30;;;;;;;0.52;0.20;;;;;;;;;;6311014;28;20059;-67
2023/03/15 04:12:32;;;;;;;1.00;0.20;;;;;;;;;;6313671;28;20341;-66
2023/03/15 04:15:35;;;;;;;0.73;0.30;;;;;;;;;;6311384;28;20056;-69
2023/03/15 04:18:39;;;;;;;0.13;0.10;;;;;;;;;;6312270;28;20225;-69
2023/03/15 04:21:46;;;;;;;0.27;0.10;;;;;;;;;;6311081;28;20079;-69
2023/03/15 04:24:50;;;;;;;0.43;0.22;;;;;;;;;;6311894;28;20048;-69
2023/03/15 04:27:58;;;;;;;0.17;0.10;;;;;;;;;;6311372;28;20328;-70
2023/03/15 04:31:01;;;;;;;0.43;0.10;;;;;;;;;;6313272;28;20900;-70
2023/03/15 04:34:03;;;;;;;0.60;0.13;;;;;;;;;;6309751;28;20040;-69
2023/03/15 04:37:05;;;;;;;1.00;0.30;;;;;;;;;;6313823;28;20107;-70
2023/03/15 04:40:10;;;;;;;1.08;0.30;;;;;;;;;;6313317;28;20053;-68
2023/03/15 04:43:12;;;;;;;0.98;0.25;;;;;;;;;;6311410;28;20068;-69
2023/03/15 04:46:15;;;;;;;0.43;0.20;;;;;;;;;;6311112;28;20295;-70
2023/03/15 04:49:17;;;;;;;0.70;0.20;;;;;;;;;;6310031;28;20145;-70
2023/03/15 04:52:18;;;;;;;0.75;0.28;;;;;;;;;;6308871;28;20367;-66
2023/03/15 04:55:20;;;;;;;0.25;0.15;;;;;;;;;;6309136;28;20044;-67
2023/03/15 04:58:22;;;;;;;0.55;0.30;;;;;;;;;;6312515;28;20048;-69
2023/03/15 05:01:29;;;;;;;0.13;0.10;;;;;;;;;;6309866;28;20270;-69
2023/03/15 05:04:30;;;;;;;0.47;0.20;;;;;;;;;;6310884;28;20064;-69
2023/03/15 05:07:33;;;;;;;0.80;0.20;;;;;;;;;;6310148;28;20049;-69
2023/03/15 05:10:35;;;;;;;0.98;0.30;;;;;;;;;;6310129;28;20115;-68
2023/03/15 05:13:37;;;;;;;0.30;0.15;;;;;;;;;;6310854;28;20231;-69
2023/03/15 05:16:42;;;;;;;0.85;0.20;;;;;;;;;;6312153;28;20052;-70
2023/03/15 05:19:44;;;;;;;0.52;0.20;;;;;;;;;;6310418;28;20106;-68
2023/03/15 05:22:47;;;;;;;0.80;0.20;;;;;;;;;;6309540;28;20387;-69
2023/03/15 05:25:52;;;;;;;1.17;0.20;;;;;;;;;;6309489;28;20062;-69
2023/03/15 05:28:57;;;;;;;0.93;0.32;;;;;;;;;;6311037;28;20064;-67
2023/03/15 05:32:03;;;;;;;1.08;0.20;;;;;;;;;;6309844;28;20048;-69
2023/03/15 05:35:27;;;;;;;0.85;0.25;;;;;;;;;;6309156;28;20047;-70
2023/03/15 05:38:30;;;;;;;0.55;0.30;;;;;;;;;;6311683;28;20067;-69
2023/03/15 05:41:32;;;;;;;1.65;0.38;;;;;;;;;;6308209;28;20049;-70
2023/03/15 05:44:34;;;;;;;0.47;0.20;;;;;;;;;;6310674;28;20053;-69
2023/03/15 05:47:44;;;;;;;4.47;0.75;;;;;;;;;;6308365;28;20055;-68
2023/03/15 05:50:46;;;;;;;0.43;0.20;;;;;;;;;;6298284;28;20060;-68
2023/03/15 05:53:48;;;;;;;0.52;0.10;;;;;;;;;;6309511;28;20073;-68
2023/03/15 05:56:50;;;;;;;2.95;0.70;;;;;;;;;;6310491;28;20170;-69
2023/03/15 05:59:52;;;;;;;1.33;0.30;;;;;;;;;;6308153;28;20067;-66
2023/03/15 06:02:55;;;;;;;1.95;0.40;;;;;;;;;;6300236;28;20586;-69
2023/03/15 06:06:00;;;;;;;0.10;0.10;;;;;;;;;;6309406;28;20052;-70
2023/03/15 06:09:12;;;;;;;3.38;0.30;;;;;;;;;;6308617;28;20454;-70
2023/03/15 06:12:15;;;;;;;0.40;0.20;;;;;;;;;;6306823;28;20056;-69
2023/03/15 06:15:16;;;;;;;1.05;0.38;;;;;;;;;;6308387;28;20056;-68
2023/03/15 06:18:25;;;;;;;0.98;0.40;;;;;;;;;;6285419;28;20176;-66
2023/03/15 06:21:27;;;;;;;1.58;0.35;;;;;;;;;;6307858;28;20052;-70
2023/03/15 06:24:28;;;;;;;0.65;0.28;;;;;;;;;;6309126;28;20198;-69
2023/03/15 06:27:30;;;;;;;0.15;0.10;;;;;;;;;;6310115;28;20043;-65
2023/03/15 06:30:32;;;;;;;1.95;0.35;;;;;;;;;;6310098;28;20095;-70
2023/03/15 06:33:36;;;;;;;1.98;0.20;;;;;;;;;;6306396;28;20062;-69
2023/03/15 06:36:38;;;;;;;4.85;0.50;;;;;;;;;;6304667;28;20056;-68
2023/03/15 06:39:40;;;;;;;0.30;0.20;;;;;;;;;;6311176;28;20355;-69
2023/03/15 06:42:41;;;;;;;5.20;0.45;;;;;;;;;;6310720;28;20114;-67
2023/03/15 06:45:44;;;;;;;0.40;0.22;;;;;;;;;;6307448;28;20056;-69
2023/03/15 06:48:47;;;;;;;1.98;0.63;;;;;;;;;;6307336;28;20059;-68
2023/03/15 06:51:49;;;;;;;1.87;0.30;;;;;;;;;;6307775;28;20048;-68
2023/03/15 06:54:50;;;;;;;3.15;0.35;;;;;;;;;;6308604;28;20040;-66
2023/03/15 06:57:52;;;;;;;1.65;0.20;;;;;;;;;;6306710;28;20328;-68
2023/03/15 07:00:54;;;;;;;0.88;0.30;;;;;;;;;;6305102;28;20048;-66
2023/03/15 07:04:01;;;;;;;4.35;0.32;;;;;;;;;;6310274;28;20055;-68
2023/03/15 07:07:03;;;;;;;1.48;0.20;;;;;;;;;;6298658;28;20843;-68
2023/03/15 07:10:05;;;;;;;1.92;0.75;;;;;;;;;;6306179;28;20561;-70
2023/03/15 07:13:09;;;;;;;1.20;0.10;;;;;;;;;;6306833;28;20702;-69
2023/03/15 07:16:11;;;;;;;4.75;0.38;;;;;;;;;;6310818;28;20071;-69
2023/03/15 07:19:14;;;;;;;1.05;0.28;;;;;;;;;;6306736;28;20040;-69
2023/03/15 07:22:16;;;;;;;0.47;0.20;;;;;;;;;;6309970;28;20263;-67
2023/03/15 07:25:22;;;;;;;0.47;0.28;;;;;;;;;;6300253;28;20052;-69
2023/03/15 07:28:25;;;;;;;1.65;0.20;;;;;;;;;;6313454;28;20098;-69
2023/03/15 07:31:27;;;;;;;0.70;0.25;;;;;;;;;;6314405;28;20060;-68
2023/03/15 07:34:30;;;;;;;4.80;0.30;;;;;;;;;;6313277;28;20053;-69
2023/03/15 07:37:32;;;;;;;1.30;0.30;;;;;;;;;;6312642;28;20057;-69
2023/03/15 07:40:34;;;;;;;2.10;0.60;;;;;;;;;;6315113;28;20052;-68
2023/03/15 07:43:35;;;;;;;2.13;0.60;;;;;;;;;;6313218;28;20351;-69
2023/03/15 07:46:37;;;;;;;4.22;0.47;;;;;;;;;;6312406;28;20056;-68
2023/03/15 07:49:42;;;;;;;3.03;0.30;;;;;;;;;;6312715;28;20040;-70
2023/03/15 07:52:44;;;;;;;0.45;0.20;;;;;;;;;;6311618;28;20119;-68
2023/03/15 07:55:47;;;;;;;2.38;0.30;;;;;;;;;;6305535;28;20052;-68
2023/03/15 07:58:49;;;;;;;2.15;0.30;;;;;;;;;;6313020;28;20059;-69
2023/03/15 08:01:51;;;;;;;2.90;0.28;;;;;;;;;;6312825;28;20048;-69
2023/03/15 08:04:54;;;;;;;4.07;0.93;;;;;;;;;;6313042;28;20078;-69
2023/03/15 08:07:57;;;;;;;1.50;0.43;;;;;;;;;;6312438;28;20071;-70
2023/03/15 08:10:59;;;;;;;1.20;0.45;;;;;;;;;;6313107;28;20048;-69
2023/03/15 08:14:00;;;;;;;1.52;0.40;;;;;;;;;;6313039;28;20228;-69
2023/03/15 08:17:02;;;;;;;0.40;0.22;;;;;;;;;;6311652;28;20047;-70
2023/03/15 08:20:10;;;;;;;3.38;0.20;;;;;;;;;;6309664;28;20526;-69
2023/03/15 08:23:15;;;;;;;2.80;0.25;;;;;;;;;;6309681;28;20110;-69
2023/03/15 08:26:16;;;;;;;0.52;0.30;;;;;;;;;;6310401;28;20048;-69
2023/03/15 08:29:18;;;;;;;0.93;0.40;;;;;;;;;;6312473;28;20064;-69
2023/03/15 08:32:20;;;;;;;0.82;0.30;;;;;;;;;;6314762;28;20055;-68
2023/03/15 08:35:23;;;;;;;0.30;0.20;;;;;;;;;;6310471;28;20337;-66
2023/03/15 08:38:26;;;;;;;1.77;0.95;;;;;;;;;;6310925;28;20104;-69
2023/03/15 08:41:27;;;;;;;0.75;0.25;;;;;;;;;;6311185;28;20067;-69
2023/03/15 08:44:29;;;;;;;0.70;0.35;;;;;;;;;;6313028;28;20059;-70
2023/03/15 08:47:34;;;;;;;2.75;1.00;;;;;;;;;;6310684;28;20260;-69
2023/03/15 08:50:37;;;;;;;0.90;0.30;;;;;;;;;;6310672;28;20052;-69
2023/03/15 08:53:39;;;;;;;0.40;0.13;;;;;;;;;;6312331;28;20048;-69
2023/03/15 08:56:41;;;;;;;1.02;0.20;;;;;;;;;;6312888;28;20127;-69
2023/03/15 08:59:42;;;;;;;1.13;0.70;;;;;;;;;;6312956;28;20095;-70
2023/03/15 09:02:47;;;;;;;1.08;0.40;;;;;;;;;;6309865;28;20063;-69
2023/03/15 09:05:50;;;;;;;1.08;0.50;;;;;;;;;;6311907;28;20052;-66
2023/03/15 09:08:53;;;;;;;1.93;0.83;;;;;;;;;;6308564;28;20097;-70
2023/03/15 09:11:55;;;;;;;1.20;0.40;;;;;;;;;;6312396;28;20470;-69
2023/03/15 09:14:57;;;;;;;0.98;0.40;;;;;;;;;;6308589;28;20057;-68
2023/03/15 09:17:59;;;;;;;1.48;0.40;;;;;;;;;;6312706;28;20308;-68
2023/03/15 09:21:02;;;;;;;0.60;0.20;;;;;;;;;;6310903;28;20067;-70
2023/03/15 09:24:04;;;;;;;0.30;0.10;;;;;;;;;;6307583;28;20053;-69
2023/03/15 09:27:06;;;;;;;0.70;0.40;;;;;;;;;;6309089;28;20541;-69
2023/03/15 09:30:09;;;;;;;2.05;0.22;;;;;;;;;;6312114;28;20040;-70
2023/03/15 09:33:13;;;;;;;0.30;0.20;;;;;;;;;;6310146;28;20352;-70
2023/03/15 09:36:16;;;;;;;3.35;1.02;;;;;;;;;;6303750;28;20060;-69
2023/03/15 09:39:18;;;;;;;0.43;0.20;;;;;;;;;;6311012;28;20108;-70
2023/03/15 09:42:23;;;;;;;1.65;0.20;;;;;;;;;;6312795;28;20473;-68
2023/03/15 09:45:30;;;;;;;3.25;0.30;;;;;;;;;;6300396;28;20102;-71
2023/03/15 09:48:36;;;;;;;1.67;0.47;;;;;;;;;;6309837;28;20070;-70
2023/03/15 09:51:42;;;;;;;2.70;0.30;;;;;;;;;;6308870;28;20041;-69
2023/03/15 09:54:47;;;;;;;0.60;0.35;;;;;;;;;;6311955;28;20059;-69
2023/03/15 09:57:50;;;;;;;1.05;0.52;;;;;;;;;;6307779;28;20266;-67
2023/03/15 10:00:53;;;;;;;;;;;;;;;;;;6307930;28;20060;-69
2023/03/15 10:03:55;;;;;;;1.90;0.77;;;;;;;;;;6308362;28;19930;-68
2023/03/15 10:07:00;;;;;;;1.45;0.38;;;;;;;;;;6309692;28;20056;-69
2023/03/15 10:10:03;;;;;;;0.50;0.20;;;;;;;;;;6311679;28;20048;-69
2023/03/15 10:13:08;;;;;;;;;;;;;;;;;;6310532;28;20058;-69
2023/03/15 10:16:22;;;;;;;1.00;0.40;;;;;;;;;;6310519;28;19924;-69
2023/03/15 10:19:31;;;;;;;5.10;0.35;;;;;;;;;;6309404;28;20056;-66
2023/03/15 10:22:37;;;;;;;2.97;0.40;;;;;;;;;;6309914;28;20048;-69
2023/03/15 10:25:39;;;;;;;0.20;0.20;;;;;;;;;;6311626;28;20336;-69
2023/03/15 10:28:42;;;;;;;1.27;0.38;;;;;;;;;;6311312;28;20072;-69
2023/03/15 10:31:46;;;;;;;1.88;0.50;;;;;;;;;;6311268;28;20055;-69
2023/03/15 10:34:50;;;;;;;0.73;0.30;;;;;;;;;;6309326;28;20044;-69
2023/03/15 10:37:54;;;;;;;0.43;0.30;;;;;;;;;;6312209;28;20052;-70
2023/03/15 10:40:57;;;;;;;1.20;0.30;;;;;;;;;;6307244;28;20057;-69
2023/03/15 10:44:02;;;;;;;4.00;0.68;;;;;;;;;;6312692;28;20052;-69
2023/03/15 10:47:06;;;;;;;1.92;0.47;;;;;;;;;;6313272;28;20121;-69
2023/03/15 10:50:10;;;;;;;0.60;0.20;;;;;;;;;;6312079;28;20044;-68
2023/03/15 10:53:20;;;;;;;0.63;0.30;;;;;;;;;;6316613;28;20056;-69
2023/03/15 10:56:25;;;;;;;0.40;0.20;;;;;;;;;;6311408;28;20040;-70
2023/03/15 10:59:28;;;;;;;0.45;0.35;;;;;;;;;;6315980;28;20068;-70
2023/03/15 11:02:30;;;;;;;0.83;0.30;;;;;;;;;;6316985;28;20052;-69
2023/03/15 11:05:36;;;;;;;2.55;0.40;;;;;;;;;;6314325;28;20096;-69
2023/03/15 11:08:41;;;;;;;0.30;0.20;;;;;;;;;;6314991;28;20267;-70
2023/03/15 11:11:58;;;;;;;1.50;0.30;;;;;;;;;;6319581;28;20056;-70
2023/03/15 11:15:03;;;;;;;1.33;0.35;;;;;;;;;;6311587;28;20621;-69
2023/03/15 11:18:05;;;;;;;0.57;0.30;;;;;;;;;;6321362;28;20051;-70
2023/03/15 11:21:09;;;;;;;3.22;0.40;;;;;;;;;;6319063;28;20063;-69
2023/03/15 11:24:24;;;;;;;1.58;0.40;;;;;;;;;;6313894;28;20252;-69
2023/03/15 11:27:28;;;;;;;1.48;0.30;;;;;;;;;;6309474;28;20052;-70
2023/03/15 11:30:31;;;;;;;0.73;0.30;;;;;;;;;;6314898;28;20332;-69
2023/03/15 11:33:38;;;;;;;1.00;0.28;;;;;;;;;;6312879;28;20075;-72
2023/03/15 11:36:44;;;;;;;1.40;0.30;;;;;;;;;;6311998;28;20063;-69
2023/03/15 11:39:52;;;;;;;3.47;0.50;;;;;;;;;;6314512;28;20300;-66
2023/03/15 11:42:58;;;;;;;1.88;0.38;;;;;;;;;;6315005;28;20063;-69
2023/03/15 11:46:00;;;;;;;1.00;0.30;;;;;;;;;;6313523;28;20603;-69
2023/03/15 11:49:06;;;;;;;2.22;0.50;;;;;;;;;;6311417;28;20052;-68
2023/03/15 11:52:08;;;;;;;0.93;0.40;;;;;;;;;;6312347;28;20056;-70
2023/03/15 11:55:17;;;;;;;2.50;0.40;;;;;;;;;;6313600;28;20102;-69
2023/03/15 11:58:31;;;;;;;0.60;0.30;;;;;;;;;;6317391;28;20374;-68
2023/03/15 12:01:34;;;;;;;0.98;0.57;;;;;;;;;;6315636;28;20082;-70
2023/03/15 12:04:43;;;;;;;2.67;0.30;;;;;;;;;;6313560;28;20283;-69
2023/03/15 12:07:59;;;;;;;0.93;0.30;;;;;;;;;;6311770;28;20360;-67
2023/03/15 12:11:10;;;;;;;2.50;0.40;;;;;;;;;;6312139;28;20043;-70
2023/03/15 12:14:31;;;;;;;3.03;0.35;;;;;;;;;;6313865;28;20312;-66
2023/03/15 12:17:41;;;;;;;2.42;0.73;;;;;;;;;;6311694;28;20193;-70
2023/03/15 12:20:49;;;;;;;1.60;0.50;;;;;;;;;;6311984;28;20114;-70
2023/03/15 12:24:00;;;;;;;1.48;0.50;;;;;;;;;;6312989;28;20055;-70
2023/03/15 12:27:04;;;;;;;3.60;0.65;;;;;;;;;;6309986;28;20052;-69
2023/03/15 12:30:15;;;;;;;3.15;0.70;;;;;;;;;;6314639;28;20372;-71
2023/03/15 12:33:19;;;;;;;4.43;0.70;;;;;;;;;;6311717;28;20048;-69
2023/03/15 12:36:32;;;;;;;1.23;0.43;;;;;;;;;;6311334;28;20056;-70
2023/03/15 12:39:38;;;;;;;2.30;0.50;;;;;;;;;;6312300;28;20070;-70
2023/03/15 12:43:08;;;;;;;2.05;0.50;;;;;;;;;;6310901;28;20702;-69
2023/03/15 12:46:43;;;;;;;1.50;0.50;;;;;;;;;;6311316;28;20067;-70
2023/03/15 12:49:46;;;;;;;0.60;0.22;;;;;;;;;;6313580;28;20052;-68
2023/03/15 12:52:52;;;;;;;2.88;0.30;;;;;;;;;;6311658;28;20079;-70
2023/03/15 12:55:54;;;;;;;2.90;0.57;;;;;;;;;;6311736;28;20094;-70
2023/03/15 12:59:03;;;;;;;1.10;0.50;;;;;;;;;;6312712;28;20052;-71
2023/03/15 13:02:18;;;;;;;0.73;0.30;;;;;;;;;;6309991;28;20182;-70
2023/03/15 13:05:23;;;;;;;1.95;0.50;;;;;;;;;;6312972;28;20379;-69
2023/03/15 13:08:28;;;;;;;1.10;0.30;;;;;;;;;;6308506;28;20097;-70
2023/03/15 13:11:33;;;;;;;0.75;0.40;;;;;;;;;;6311011;28;20060;-70
2023/03/15 13:14:42;;;;;;;1.05;0.30;;;;;;;;;;6312238;28;20101;-70
2023/03/15 13:17:49;;;;;;;1.77;0.43;;;;;;;;;;6308960;28;20059;-68
2023/03/15 13:20:57;;;;;;;0.98;0.40;;;;;;;;;;6312951;28;20126;-69
2023/03/15 13:23:59;;;;;;;0.77;0.30;;;;;;;;;;6337147;28;20247;-69
2023/03/15 13:27:04;;;;;;;1.60;0.30;;;;;;;;;;6337543;28;20051;-70
2023/03/15 13:30:27;;;;;;;0.80;0.30;;;;;;;;;;6339598;28;20241;-69
2023/03/15 13:33:31;;;;;;;0.98;0.40;;;;;;;;;;6336237;28;20048;-71
2023/03/15 13:36:40;;;;;;;0.98;0.45;;;;;;;;;;6339225;28;20040;-69
2023/03/15 13:39:53;;;;;;;2.17;0.40;;;;;;;;;;6335532;28;20300;-70
2023/03/15 13:42:59;;;;;;;1.35;0.50;;;;;;;;;;6335228;28;20238;-70
2023/03/15 13:46:03;;;;;;;2.55;0.70;;;;;;;;;;6337005;28;20117;-71
2023/03/15 13:49:05;;;;;;;1.25;0.40;;;;;;;;;;6335469;28;20101;-69
2023/03/15 13:52:11;;;;;;;0.33;0.20;;;;;;;;;;6336317;28;20067;-69
2023/03/15 13:55:15;;;;;;;1.73;0.40;;;;;;;;;;6336686;28;20444;-70
2023/03/15 13:58:16;;;;;;;0.52;0.40;;;;;;;;;;6335898;28;20063;-70
2023/03/15 14:01:21;;;;;;;0.70;0.50;;;;;;;;;;6337743;28;20275;-70
2023/03/15 14:04:24;;;;;;;4.72;3.75;;;;;;;;;;6335425;28;21875;-72
2023/03/15 14:07:28;;;;;;;4.10;2.42;;;;;;;;;;6335380;28;20051;-72
2023/03/15 14:10:31;;;;;;;9.68;8.07;;;;;;;;;;6337144;28;20071;-71
2023/03/15 14:13:34;;;;;;;0.80;0.60;;;;;;;;;;6332704;28;20051;-71
2023/03/15 14:16:41;;;;;;;;;;;;;;;;;;6336207;28;20047;-71
2023/03/15 14:19:52;;;;;;;2.65;0.82;;;;;;;;;;6335400;28;19930;-70
2023/03/15 14:22:57;;;;;;;0.90;0.30;;;;;;;;;;6334700;28;20134;-71
2023/03/15 14:26:12;;;;;;;1.50;0.30;;;;;;;;;;6333804;28;20050;-70
2023/03/15 14:29:17;;;;;;;0.90;0.40;;;;;;;;;;6334780;28;20059;-69
2023/03/15 14:32:27;;;;;;;0.45;0.30;;;;;;;;;;6337274;28;20373;-68
2023/03/15 14:35:31;;;;;;;0.38;0.30;;;;;;;;;;6337842;28;20058;-70
2023/03/15 14:38:38;;;;;;;0.95;0.40;;;;;;;;;;6339781;27;20094;-70
2023/03/15 14:41:41;;;;;;;0.55;0.40;;;;;;;;;;6343380;28;20078;-70
2023/03/15 14:44:42;;;;;;;2.92;0.93;;;;;;;;;;6340150;28;20301;-70
2023/03/15 14:47:47;;;;;;;0.98;0.50;;;;;;;;;;6352418;27;20058;-69
2023/03/15 14:50:49;;;;;;;2.15;0.40;;;;;;;;;;6365435;27;20111;-68
2023/03/15 14:53:54;;;;;;;3.55;0.60;;;;;;;;;;6363758;27;20377;-70
2023/03/15 14:56:56;;;;;;;1.25;0.45;;;;;;;;;;6364800;27;20365;-71
2023/03/15 14:59:58;;;;;;;2.60;0.50;;;;;;;;;;6365911;27;20047;-71
2023/03/15 15:03:01;;;;;;;2.58;0.68;;;;;;;;;;6362655;27;20143;-70
2023/03/15 15:06:03;;;;;;;;;;;;;;;;;;6365912;27;20142;-70
2023/03/15 15:09:05;;;;;;;1.10;0.55;;;;;;;;;;6366768;27;19923;-70
2023/03/15 15:12:07;;;;;;;1.95;0.30;;;;;;;;;;6355289;27;20338;-67
2023/03/15 15:15:15;;;;;;;2.78;0.40;;;;;;;;;;6364488;27;20115;-72
2023/03/15 15:18:18;;;;;;;2.38;0.55;;;;;;;;;;6363651;27;20070;-70
2023/03/15 15:21:22;;;;;;;;;;;;;;;;;;6363897;27;20062;-69
2023/03/15 15:24:25;;;;;;;0.52;0.40;;;;;;;;;;6361309;27;19935;-71
2023/03/15 15:27:27;;;;;;;1.10;0.60;;;;;;;;;;6349163;27;20061;-69
2023/03/15 15:30:30;;;;;;;1.65;0.50;;;;;;;;;;6365348;27;20096;-71
2023/03/15 15:33:33;;;;;;;1.00;0.50;;;;;;;;;;6363403;27;20067;-70
2023/03/15 15:36:36;;;;;;;7.95;0.68;;;;;;;;;;6365673;27;20050;-69
2023/03/15 15:39:38;;;;;;;1.88;0.50;;;;;;;;;;6358297;27;20097;-70
2023/03/15 15:42:40;;;;;;;3.58;0.95;;;;;;;;;;6359843;27;20304;-68
2023/03/15 15:45:41;;;;;;;6.13;0.90;;;;;;;;;;6354265;27;20125;-71
2023/03/15 15:48:45;;;;;;;2.60;0.65;;;;;;;;;;6361286;27;20067;-71
2023/03/15 15:51:48;;;;;;;4.10;0.80;;;;;;;;;;6362866;27;20051;-70
2023/03/15 15:54:50;;;;;;;2.00;1.00;;;;;;;;;;6362910;27;20333;-69
2023/03/15 15:57:52;;;;;;;12.80;1.10;;;;;;;;;;6365192;27;20073;-71
2023/03/15 16:00:54;;;;;;;8.68;1.00;;;;;;;;;;6363618;27;20051;-71
2023/03/15 16:03:57;;;;;;;15.25;1.15;;;;;;;;;;6362351;27;20062;-70
2023/03/15 16:07:00;;;;;;;;;;;;;;;;;;6363252;27;20058;-70
2023/03/15 16:10:02;;;;;;;7.13;0.93;;;;;;;;;;6360911;27;19923;-69
2023/03/15 16:13:04;;;;;;;11.23;0.90;;;;;;;;;;6360770;27;20043;-70
2023/03/15 16:16:06;;;;;;;7.20;0.97;;;;;;;;;;6362242;27;20460;-67
2023/03/15 16:19:09;;;;;;;3.83;1.00;;;;;;;;;;6362859;27;20056;-67
2023/03/15 16:22:11;;;;;;;;;;;;;;;;;;6362833;27;20411;-71
2023/03/15 16:25:17;;;;;;;2.78;0.70;;;;;;;;;;6361225;27;19930;-70
2023/03/15 16:28:19;;;;;;;8.05;1.00;;;;;;;;;;6359565;27;20064;-72
2023/03/15 16:31:21;;;;;;;7.35;0.82;;;;;;;;;;6363726;27;20043;-70
2023/03/15 16:34:25;;;;;;;11.55;1.83;;;;;;;;;;6359082;27;20894;-70
2023/03/15 16:37:30;;;;;;;5.63;1.00;;;;;;;;;;6356699;27;20047;-70
2023/03/15 16:40:33;;;;;;;5.60;1.10;;;;;;;;;;6354630;27;20040;-67
2023/03/15 16:43:35;;;;;;;2.60;0.77;;;;;;;;;;6363395;27;20046;-70
2023/03/15 16:46:36;;;;;;;6.57;1.00;;;;;;;;;;6363525;27;20047;-71
2023/03/15 16:49:39;;;;;;;3.45;0.70;;;;;;;;;;6355827;27;20274;-72
2023/03/15 16:52:41;;;;;;;;;;;;;;;;;;6357865;27;20043;-70
2023/03/15 16:55:43;;;;;;;0.73;0.60;;;;;;;;;;6354953;27;19977;-69
2023/03/15 16:58:45;;;;;;;3.05;0.70;;;;;;;;;;6361257;27;20344;-69
2023/03/15 17:01:48;;;;;;;7.13;0.85;;;;;;;;;;6361581;27;20075;-70
2023/03/15 17:04:51;;;;;;;4.95;0.63;;;;;;;;;;6353394;27;20127;-71
2023/03/15 17:07:54;;;;;;;3.75;1.17;;;;;;;;;;6362285;27;20106;-69
2023/03/15 17:10:55;;;;;;;8.38;1.25;;;;;;;;;;6352895;27;20059;-71
2023/03/15 17:13:58;;;;;;;8.40;1.17;;;;;;;;;;6352825;27;20750;-70
2023/03/15 17:16:59;;;;;;;10.65;1.20;;;;;;;;;;6361364;27;20055;-70
2023/03/15 17:20:06;;;;;;;4.57;0.88;;;;;;;;;;6360095;27;20100;-68
2023/03/15 17:23:08;;;;;;;4.72;1.50;;;;;;;;;;6362510;27;20058;-70
2023/03/15 17:26:12;;;;;;;5.55;1.15;;;;;;;;;;6362180;27;20051;-70
2023/03/15 17:29:14;;;;;;;10.95;3.65;;;;;;;;;;6360411;27;20074;-69
2023/03/15 17:32:15;;;;;;;6.95;1.50;;;;;;;;;;6361491;27;20055;-69
2023/03/15 17:35:21;;;;;;;2.03;1.20;;;;;;;;;;6361305;27;20070;-69
2023/03/15 17:38:26;;;;;;;4.72;1.27;;;;;;;;;;6360073;27;20390;-70
2023/03/15 17:41:29;;;;;;;3.90;1.10;;;;;;;;;;6360711;27;20077;-70
2023/03/15 17:44:31;;;;;;;1.83;0.90;;;;;;;;;;6362010;27;20103;-70
2023/03/15 17:47:33;;;;;;;1.60;0.80;;;;;;;;;;6360468;27;20096;-70
2023/03/15 17:50:36;;;;;;;4.40;1.63;;;;;;;;;;6352708;27;20051;-69
2023/03/15 17:53:38;;;;;;;2.88;1.52;;;;;;;;;;6360630;27;20052;-66
2023/03/15 17:56:39;;;;;;;4.78;2.00;;;;;;;;;;6364279;27;20055;-69
2023/03/15 17:59:41;;;;;;;2.38;1.20;;;;;;;;;;6361520;27;20154;-69
2023/03/15 18:02:44;;;;;;;2.58;1.00;;;;;;;;;;6361877;27;20115;-69
2023/03/15 18:05:47;;;;;;;4.53;1.25;;;;;;;;;;6361887;27;20054;-69
2023/03/15 18:08:49;;;;;;;1.23;0.70;;;;;;;;;;6358688;27;20328;-70
2023/03/15 18:11:51;;;;;;;4.05;1.05;;;;;;;;;;6358276;27;20237;-69
2023/03/15 18:14:52;;;;;;;2.42;0.63;;;;;;;;;;6362721;27;20054;-68
2023/03/15 18:17:54;;;;;;;2.92;0.75;;;;;;;;;;6360914;28;20055;-68
2023/03/15 18:20:57;;;;;;;4.55;0.85;;;;;;;;;;6359180;27;20039;-68
2023/03/15 18:23:59;;;;;;;1.88;0.70;;;;;;;;;;6361086;28;20048;-69
2023/03/15 18:27:01;;;;;;;2.10;0.80;;;;;;;;;;6359208;28;20059;-69